Terminal Aerodrome Forecast
Issued by NWS

Home | Current Version | Previous Version | Text Only | Print | Product List | Glossary Off
Versions: 1 2 3 4 5 6 7 8 9 10 11 12 13

033
FTUS44 KTSA 231736
TAFMLC
TAF
KMLC 231736Z 2318/2418 14006KT P6SM SCT050
      TEMPO 2320/2324 VRB15G30KT 2SM -TSRA BR BKN035CB
     FM240200 08003KT P6SM OVC080
     FM241400 07003KT P6SM FEW250=

USA.gov is the U.S. government's official web portal to all federal, state and local government web resources and services.